sensor_id;sensor_type;location;lat;lon;timestamp;pressure;altitude;pressure_sealevel;temperature;humidity
58467;BME280;44255;49.244;7.726;2023-03-26T03:30:30;97555.88;;;-0.50;89.01
58467;BME280;44255;49.244;7.726;2023-03-26T03:32:55;97550.69;;;-0.53;89.80
58467;BME280;44255;49.244;7.726;2023-03-26T03:35:23;97544.47;;;-0.52;89.95
58467;BME280;44255;49.244;7.726;2023-03-26T03:37:48;97537.97;;;-0.43;90.31
58467;BME280;44255;49.244;7.726;2023-03-26T03:40:13;97529.00;;;-0.39;89.61
58467;BME280;44255;49.244;7.726;2023-03-26T03:42:39;97524.22;;;-0.29;88.70
58467;BME280;44255;49.244;7.726;2023-03-26T03:45:04;97513.66;;;-0.53;89.78
58467;BME280;44255;49.244;7.726;2023-03-26T03:47:30;97504.22;;;-0.14;88.37
58467;BME280;44255;49.244;7.726;2023-03-26T03:49:56;97501.13;;;-0.03;86.46
58467;BME280;44255;49.244;7.726;2023-03-26T03:52:24;97500.88;;;0.03;85.74
58467;BME280;44255;49.244;7.726;2023-03-26T03:54:49;97505.50;;;-0.24;87.04
58467;BME280;44255;49.244;7.726;2023-03-26T03:57:15;97498.97;;;-0.38;87.52
58467;BME280;44255;49.244;7.726;2023-03-26T03:59:42;97493.44;;;-0.32;87.47
58467;BME280;44255;49.244;7.726;2023-03-26T04:02:09;97473.66;;;-0.23;87.61
58467;BME280;44255;49.244;7.726;2023-03-26T04:04:35;97473.22;;;-0.34;87.84
58467;BME280;44255;49.244;7.726;2023-03-26T04:07:02;97476.00;;;-0.37;88.52
58467;BME280;44255;49.244;7.726;2023-03-26T04:09:27;97463.47;;;0.11;85.68
58467;BME280;44255;49.244;7.726;2023-03-26T04:11:52;97456.13;;;0.18;83.87
58467;BME280;44255;49.244;7.726;2023-03-26T04:14:18;97440.81;;;0.47;83.81
58467;BME280;44255;49.244;7.726;2023-03-26T04:16:43;97432.44;;;0.35;84.58
58467;BME280;44255;49.244;7.726;2023-03-26T04:19:08;97428.75;;;0.39;83.37
58467;BME280;44255;49.244;7.726;2023-03-26T04:21:33;97429.41;;;0.45;82.77
58467;BME280;44255;49.244;7.726;2023-03-26T04:24:02;97429.19;;;0.29;83.71
58467;BME280;44255;49.244;7.726;2023-03-26T04:26:27;97436.47;;;0.23;83.84
58467;BME280;44255;49.244;7.726;2023-03-26T04:28:57;97435.56;;;0.02;85.26
58467;BME280;44255;49.244;7.726;2023-03-26T04:31:24;97429.44;;;0.02;86.13
58467;BME280;44255;49.244;7.726;2023-03-26T04:33:54;97420.00;;;-0.06;86.43
58467;BME280;44255;49.244;7.726;2023-03-26T04:36:27;97422.59;;;-0.04;86.76
58467;BME280;44255;49.244;7.726;2023-03-26T04:38:53;97425.19;;;-0.03;86.51
58467;BME280;44255;49.244;7.726;2023-03-26T04:41:19;97424.09;;;0.24;85.42
58467;BME280;44255;49.244;7.726;2023-03-26T04:43:46;97432.75;;;0.50;84.41
58467;BME280;44255;49.244;7.726;2023-03-26T04:46:15;97419.59;;;0.47;84.60
58467;BME280;44255;49.244;7.726;2023-03-26T04:48:43;97417.41;;;0.36;85.27
58467;BME280;44255;49.244;7.726;2023-03-26T04:51:09;97404.53;;;0.06;86.96
58467;BME280;44255;49.244;7.726;2023-03-26T04:53:58;97398.72;;;0.39;86.13
58467;BME280;44255;49.244;7.726;2023-03-26T04:57:00;97399.19;;;0.28;85.88
58467;BME280;44255;49.244;7.726;2023-03-26T04:59:29;97396.81;;;0.43;84.52
58467;BME280;44255;49.244;7.726;2023-03-26T05:01:59;97383.47;;;0.44;84.62
58467;BME280;44255;49.244;7.726;2023-03-26T05:04:25;97384.81;;;0.54;84.41
58467;BME280;44255;49.244;7.726;2023-03-26T05:06:54;97386.94;;;0.67;84.99
58467;BME280;44255;49.244;7.726;2023-03-26T05:09:21;97379.44;;;0.35;85.27
58467;BME280;44255;49.244;7.726;2023-03-26T05:11:46;97366.13;;;0.37;85.33
58467;BME280;44255;49.244;7.726;2023-03-26T05:14:12;97358.34;;;0.32;85.84
58467;BME280;44255;49.244;7.726;2023-03-26T05:16:38;97349.47;;;0.33;85.80
58467;BME280;44255;49.244;7.726;2023-03-26T05:19:04;97341.53;;;0.54;85.56
58467;BME280;44255;49.244;7.726;2023-03-26T05:21:29;97333.44;;;0.36;85.40
58467;BME280;44255;49.244;7.726;2023-03-26T05:23:54;97332.78;;;0.52;86.13
58467;BME280;44255;49.244;7.726;2023-03-26T05:26:20;97329.28;;;0.51;85.56
58467;BME280;44255;49.244;7.726;2023-03-26T05:28:45;97324.06;;;0.69;84.61
58467;BME280;44255;49.244;7.726;2023-03-26T05:31:10;97313.81;;;0.61;84.80
58467;BME280;44255;49.244;7.726;2023-03-26T05:33:35;97310.72;;;0.71;84.67
58467;BME280;44255;49.244;7.726;2023-03-26T05:36:04;97310.25;;;0.42;85.26
58467;BME280;44255;49.244;7.726;2023-03-26T05:38:31;97311.06;;;0.63;85.02
58467;BME280;44255;49.244;7.726;2023-03-26T05:41:00;97289.25;;;0.77;84.66
58467;BME280;44255;49.244;7.726;2023-03-26T05:43:27;97284.00;;;0.75;85.06
58467;BME280;44255;49.244;7.726;2023-03-26T05:45:52;97275.53;;;1.05;83.76
58467;BME280;44255;49.244;7.726;2023-03-26T05:48:18;97262.56;;;0.99;82.69
58467;BME280;44255;49.244;7.726;2023-03-26T05:50:47;97264.34;;;0.79;83.99
58467;BME280;44255;49.244;7.726;2023-03-26T05:53:12;97260.16;;;0.56;85.70
58467;BME280;44255;49.244;7.726;2023-03-26T05:55:37;97255.63;;;0.58;85.20
58467;BME280;44255;49.244;7.726;2023-03-26T05:58:04;97253.69;;;0.62;86.13
58467;BME280;44255;49.244;7.726;2023-03-26T06:00:30;97248.06;;;0.87;85.14
58467;BME280;44255;49.244;7.726;2023-03-26T06:02:55;97250.50;;;0.73;85.07
58467;BME280;44255;49.244;7.726;2023-03-26T06:05:21;97246.78;;;0.96;84.37
58467;BME280;44255;49.244;7.726;2023-03-26T06:07:46;97242.91;;;0.84;85.15
58467;BME280;44255;49.244;7.726;2023-03-26T06:10:11;97235.53;;;0.91;85.20
58467;BME280;44255;49.244;7.726;2023-03-26T06:12:37;97242.22;;;0.61;85.85
58467;BME280;44255;49.244;7.726;2023-03-26T06:15:03;97243.66;;;0.68;85.59
58467;BME280;44255;49.244;7.726;2023-03-26T06:17:28;97243.94;;;1.18;84.09
58467;BME280;44255;49.244;7.726;2023-03-26T06:19:53;97255.69;;;0.76;85.28
58467;BME280;44255;49.244;7.726;2023-03-26T06:22:19;97262.44;;;0.24;89.09
58467;BME280;44255;49.244;7.726;2023-03-26T06:24:44;97263.34;;;-0.38;92.38
58467;BME280;44255;49.244;7.726;2023-03-26T06:27:10;97248.19;;;-0.34;93.56
58467;BME280;44255;49.244;7.726;2023-03-26T06:29:35;97244.47;;;-0.30;93.72
58467;BME280;44255;49.244;7.726;2023-03-26T06:32:00;97245.31;;;-0.09;92.93
58467;BME280;44255;49.244;7.726;2023-03-26T06:34:26;97234.44;;;0.18;92.92
58467;BME280;44255;49.244;7.726;2023-03-26T06:36:51;97215.56;;;0.64;89.31
58467;BME280;44255;49.244;7.726;2023-03-26T06:39:17;97212.19;;;0.61;88.29
58467;BME280;44255;49.244;7.726;2023-03-26T06:41:43;97204.59;;;0.72;87.34
58467;BME280;44255;49.244;7.726;2023-03-26T06:44:08;97202.09;;;0.69;87.95
58467;BME280;44255;49.244;7.726;2023-03-26T06:46:35;97195.75;;;0.91;87.31
58467;BME280;44255;49.244;7.726;2023-03-26T06:49:00;97192.91;;;0.76;87.99
58467;BME280;44255;49.244;7.726;2023-03-26T06:51:25;97178.41;;;0.45;90.71
58467;BME280;44255;49.244;7.726;2023-03-26T06:53:51;97194.81;;;0.92;87.91
58467;BME280;44255;49.244;7.726;2023-03-26T06:56:16;97187.91;;;0.70;89.78
58467;BME280;44255;49.244;7.726;2023-03-26T06:58:41;97184.03;;;0.95;88.64
58467;BME280;44255;49.244;7.726;2023-03-26T07:01:06;97173.03;;;0.85;88.44
58467;BME280;44255;49.244;7.726;2023-03-26T07:03:32;97171.41;;;0.82;88.88
58467;BME280;44255;49.244;7.726;2023-03-26T07:05:57;97165.81;;;1.24;87.12
58467;BME280;44255;49.244;7.726;2023-03-26T07:08:22;97168.63;;;1.21;86.20
58467;BME280;44255;49.244;7.726;2023-03-26T07:10:47;97156.97;;;1.41;84.53
58467;BME280;44255;49.244;7.726;2023-03-26T07:13:13;97157.41;;;1.67;84.41
58467;BME280;44255;49.244;7.726;2023-03-26T07:15:39;97149.81;;;1.25;84.58
58467;BME280;44255;49.244;7.726;2023-03-26T07:18:05;97145.56;;;0.86;88.86
58467;BME280;44255;49.244;7.726;2023-03-26T07:20:30;97127.38;;;1.31;86.26
58467;BME280;44255;49.244;7.726;2023-03-26T07:22:56;97132.25;;;1.05;87.18
58467;BME280;44255;49.244;7.726;2023-03-26T07:25:22;97121.25;;;0.95;88.67
58467;BME280;44255;49.244;7.726;2023-03-26T07:33:27;97124.34;;;1.21;87.98
58467;BME280;44255;49.244;7.726;2023-03-26T07:39:08;97119.38;;;1.15;87.96
58467;BME280;44255;49.244;7.726;2023-03-26T07:41:48;97120.69;;;1.24;89.20
58467;BME280;44255;49.244;7.726;2023-03-26T07:49:46;97106.28;;;1.46;86.15
58467;BME280;44255;49.244;7.726;2023-03-26T07:52:12;97093.06;;;1.62;85.77
58467;BME280;44255;49.244;7.726;2023-03-26T07:54:37;97095.28;;;2.03;83.47
58467;BME280;44255;49.244;7.726;2023-03-26T07:57:17;97091.25;;;1.96;83.87
58467;BME280;44255;49.244;7.726;2023-03-26T07:59:51;97083.00;;;2.01;84.74
58467;BME280;44255;49.244;7.726;2023-03-26T08:07:58;97093.75;;;1.32;87.75
58467;BME280;44255;49.244;7.726;2023-03-26T08:10:39;97085.63;;;1.68;85.66
58467;BME280;44255;49.244;7.726;2023-03-26T08:19:23;97091.78;;;2.03;87.74
58467;BME280;44255;49.244;7.726;2023-03-26T08:21:53;97075.22;;;2.14;86.49
58467;BME280;44255;49.244;7.726;2023-03-26T08:25:19;97076.34;;;2.42;85.61
58467;BME280;44255;49.244;7.726;2023-03-26T08:27:39;97079.84;;;2.58;85.18
58467;BME280;44255;49.244;7.726;2023-03-26T08:30:21;97077.97;;;2.28;86.25
58467;BME280;44255;49.244;7.726;2023-03-26T08:32:59;97077.63;;;2.34;85.79
58467;BME280;44255;49.244;7.726;2023-03-26T08:35:26;97077.53;;;2.52;85.54
58467;BME280;44255;49.244;7.726;2023-03-26T08:37:52;97073.16;;;2.51;85.26
58467;BME280;44255;49.244;7.726;2023-03-26T08:40:43;97065.19;;;2.98;83.71
58467;BME280;44255;49.244;7.726;2023-03-26T08:51:33;97059.84;;;3.12;83.83
58467;BME280;44255;49.244;7.726;2023-03-26T09:00:03;97053.66;;;2.97;84.83
58467;BME280;44255;49.244;7.726;2023-03-26T09:02:51;97049.53;;;3.22;85.41
58467;BME280;44255;49.244;7.726;2023-03-26T09:08:49;97054.38;;;3.30;83.77
58467;BME280;44255;49.244;7.726;2023-03-26T09:22:22;97035.25;;;3.37;83.65
58467;BME280;44255;49.244;7.726;2023-03-26T09:33:25;97029.19;;;3.79;82.97
58467;BME280;44255;49.244;7.726;2023-03-26T09:38:35;97017.13;;;4.15;79.86
58467;BME280;44255;49.244;7.726;2023-03-26T09:41:13;97019.19;;;3.83;79.88
58467;BME280;44255;49.244;7.726;2023-03-26T09:49:36;97014.44;;;4.30;77.92
58467;BME280;44255;49.244;7.726;2023-03-26T09:55:21;97007.19;;;3.75;79.10
58467;BME280;44255;49.244;7.726;2023-03-26T09:58:15;97016.63;;;3.66;80.92
58467;BME280;44255;49.244;7.726;2023-03-26T10:09:18;97037.41;;;2.24;86.38
58467;BME280;44255;49.244;7.726;2023-03-26T10:12:27;97029.28;;;2.74;84.66
58467;BME280;44255;49.244;7.726;2023-03-26T10:19:03;97029.03;;;2.93;86.09
58467;BME280;44255;49.244;7.726;2023-03-26T10:21:05;97041.53;;;3.07;85.87
58467;BME280;44255;49.244;7.726;2023-03-26T10:24:10;97049.31;;;3.10;83.60
58467;BME280;44255;49.244;7.726;2023-03-26T10:33:07;97032.78;;;2.12;84.71
58467;BME280;44255;49.244;7.726;2023-03-26T10:38:35;97042.94;;;2.99;81.99
58467;BME280;44255;49.244;7.726;2023-03-26T10:41:27;97046.38;;;3.30;78.36
58467;BME280;44255;49.244;7.726;2023-03-26T10:47:09;97050.00;;;3.29;76.14
58467;BME280;44255;49.244;7.726;2023-03-26T10:52:11;97064.22;;;2.99;73.07
58467;BME280;44255;49.244;7.726;2023-03-26T10:57:34;97053.16;;;2.90;71.92
58467;BME280;44255;49.244;7.726;2023-03-26T11:00:16;97056.16;;;3.15;68.26
58467;BME280;44255;49.244;7.726;2023-03-26T11:06:01;97054.38;;;3.15;66.58
58467;BME280;44255;49.244;7.726;2023-03-26T11:08:43;97054.53;;;3.12;67.87
58467;BME280;44255;49.244;7.726;2023-03-26T11:11:26;97051.06;;;3.41;65.72
58467;BME280;44255;49.244;7.726;2023-03-26T11:19:32;97049.75;;;3.62;65.08
58467;BME280;44255;49.244;7.726;2023-03-26T11:22:20;97047.06;;;3.48;64.96
58467;BME280;44255;49.244;7.726;2023-03-26T11:24:52;97042.91;;;3.44;64.12
58467;BME280;44255;49.244;7.726;2023-03-26T11:29:51;97056.94;;;3.89;63.68
58467;BME280;44255;49.244;7.726;2023-03-26T11:32:25;97045.88;;;4.25;62.19
58467;BME280;44255;49.244;7.726;2023-03-26T11:35:00;97034.72;;;4.60;60.81
58467;BME280;44255;49.244;7.726;2023-03-26T11:37:33;97034.22;;;4.80;59.58
58467;BME280;44255;49.244;7.726;2023-03-26T11:40:08;97034.91;;;5.10;57.86
58467;BME280;44255;49.244;7.726;2023-03-26T11:42:37;97049.25;;;4.69;59.88
58467;BME280;44255;49.244;7.726;2023-03-26T11:45:13;97044.22;;;4.36;59.92
58467;BME280;44255;49.244;7.726;2023-03-26T11:47:48;97031.72;;;4.09;59.80
58467;BME280;44255;49.244;7.726;2023-03-26T11:50:19;97037.06;;;3.80;59.01
58467;BME280;44255;49.244;7.726;2023-03-26T11:52:46;97030.84;;;5.04;58.81
58467;BME280;44255;49.244;7.726;2023-03-26T11:55:12;97034.84;;;4.44;58.34
58467;BME280;44255;49.244;7.726;2023-03-26T11:57:39;97028.81;;;5.34;57.47
58467;BME280;44255;49.244;7.726;2023-03-26T12:00:11;97022.88;;;6.06;55.11
58467;BME280;44255;49.244;7.726;2023-03-26T12:02:44;97019.44;;;5.28;55.84
58467;BME280;44255;49.244;7.726;2023-03-26T12:07:44;97028.94;;;5.84;55.06
58467;BME280;44255;49.244;7.726;2023-03-26T12:10:21;97018.16;;;5.60;55.13
58467;BME280;44255;49.244;7.726;2023-03-26T12:12:47;97012.25;;;6.18;53.74
58467;BME280;44255;49.244;7.726;2023-03-26T12:15:21;97016.22;;;5.36;52.74
58467;BME280;44255;49.244;7.726;2023-03-26T12:17:52;97004.75;;;6.23;49.52
58467;BME280;44255;49.244;7.726;2023-03-26T12:22:56;97008.28;;;4.83;52.08
58467;BME280;44255;49.244;7.726;2023-03-26T12:25:27;97021.03;;;4.64;52.34
58467;BME280;44255;49.244;7.726;2023-03-26T12:27:57;97007.38;;;5.22;52.32
58467;BME280;44255;49.244;7.726;2023-03-26T12:30:37;96999.25;;;6.98;48.86
58467;BME280;44255;49.244;7.726;2023-03-26T12:33:05;96996.53;;;6.86;48.66
58467;BME280;44255;49.244;7.726;2023-03-26T12:35:33;96981.09;;;6.65;49.42
58467;BME280;44255;49.244;7.726;2023-03-26T12:38:31;96972.94;;;6.91;49.94
58467;BME280;44255;49.244;7.726;2023-03-26T12:41:05;96979.41;;;6.40;50.14
58467;BME280;44255;49.244;7.726;2023-03-26T12:48:53;96961.19;;;6.45;49.02
58467;BME280;44255;49.244;7.726;2023-03-26T12:51:29;96967.91;;;6.02;50.92
58467;BME280;44255;49.244;7.726;2023-03-26T12:54:04;96964.63;;;5.86;51.80
58467;BME280;44255;49.244;7.726;2023-03-26T13:02:46;96962.28;;;5.57;50.57
58467;BME280;44255;49.244;7.726;2023-03-26T13:14:00;96996.94;;;3.69;55.50
58467;BME280;44255;49.244;7.726;2023-03-26T13:30:30;97043.06;;;3.26;62.30
58467;BME280;44255;49.244;7.726;2023-03-26T13:38:14;97048.75;;;3.05;62.19
58467;BME280;44255;49.244;7.726;2023-03-26T13:40:52;97033.44;;;3.23;60.94
58467;BME280;44255;49.244;7.726;2023-03-26T13:43:42;97036.56;;;3.01;60.76
58467;BME280;44255;49.244;7.726;2023-03-26T13:49:09;97029.31;;;2.89;60.83
58467;BME280;44255;49.244;7.726;2023-03-26T13:51:41;97038.16;;;2.43;62.36
58467;BME280;44255;49.244;7.726;2023-03-26T13:57:20;97051.03;;;2.02;69.21
58467;BME280;44255;49.244;7.726;2023-03-26T13:59:43;97042.09;;;1.71;69.38
58467;BME280;44255;49.244;7.726;2023-03-26T14:02:17;97038.56;;;1.54;68.79
58467;BME280;44255;49.244;7.726;2023-03-26T14:04:49;97039.19;;;1.76;67.19
58467;BME280;44255;49.244;7.726;2023-03-26T14:07:21;97035.25;;;1.83;68.68
58467;BME280;44255;49.244;7.726;2023-03-26T14:10:05;97032.19;;;2.07;68.54
58467;BME280;44255;49.244;7.726;2023-03-26T14:15:04;97022.22;;;2.27;67.61
58467;BME280;44255;49.244;7.726;2023-03-26T14:17:45;97023.53;;;1.87;70.11
58467;BME280;44255;49.244;7.726;2023-03-26T14:36:18;97031.16;;;3.03;66.97
58467;BME280;44255;49.244;7.726;2023-03-26T14:39:15;97030.59;;;2.35;68.51
58467;BME280;44255;49.244;7.726;2023-03-26T14:52:45;97032.41;;;1.70;71.29
58467;BME280;44255;49.244;7.726;2023-03-26T14:55:17;97026.50;;;1.65;72.43
58467;BME280;44255;49.244;7.726;2023-03-26T14:57:58;97032.16;;;1.91;70.21
58467;BME280;44255;49.244;7.726;2023-03-26T15:11:33;97009.22;;;2.06;70.74
58467;BME280;44255;49.244;7.726;2023-03-26T15:14:42;96999.16;;;2.43;69.71
58467;BME280;44255;49.244;7.726;2023-03-26T15:17:32;96994.47;;;2.00;70.20
58467;BME280;44255;49.244;7.726;2023-03-26T15:20:37;96992.66;;;2.01;68.74
58467;BME280;44255;49.244;7.726;2023-03-26T15:23:31;96991.09;;;2.45;69.21
58467;BME280;44255;49.244;7.726;2023-03-26T15:29:16;96972.88;;;5.96;56.76
58467;BME280;44255;49.244;7.726;2023-03-26T15:32:19;96999.34;;;5.09;56.68
58467;BME280;44255;49.244;7.726;2023-03-26T15:40:29;97004.72;;;4.01;61.48
58467;BME280;44255;49.244;7.726;2023-03-26T15:43:15;97024.00;;;3.03;64.13
58467;BME280;44255;49.244;7.726;2023-03-26T15:45:48;97027.28;;;3.37;63.50
58467;BME280;44255;49.244;7.726;2023-03-26T15:48:33;97042.28;;;2.16;67.89
58467;BME280;44255;49.244;7.726;2023-03-26T15:53:53;97048.56;;;2.31;68.92
58467;BME280;44255;49.244;7.726;2023-03-26T15:59:17;97069.78;;;1.67;71.24
58467;BME280;44255;49.244;7.726;2023-03-26T16:01:59;97073.44;;;2.30;69.65
58467;BME280;44255;49.244;7.726;2023-03-26T16:04:54;97082.72;;;1.73;71.18
58467;BME280;44255;49.244;7.726;2023-03-26T16:09:55;97089.41;;;1.47;73.47
58467;BME280;44255;49.244;7.726;2023-03-26T16:12:57;97086.66;;;1.66;73.06
58467;BME280;44255;49.244;7.726;2023-03-26T16:15:27;97092.03;;;1.98;73.57
58467;BME280;44255;49.244;7.726;2023-03-26T16:21:00;97092.50;;;1.73;76.60
58467;BME280;44255;49.244;7.726;2023-03-26T16:28:36;97099.47;;;1.58;80.71
58467;BME280;44255;49.244;7.726;2023-03-26T16:31:29;97101.16;;;1.43;82.39
58467;BME280;44255;49.244;7.726;2023-03-26T16:36:35;97091.47;;;2.88;75.60
58467;BME280;44255;49.244;7.726;2023-03-26T16:41:31;97095.63;;;2.13;78.00
58467;BME280;44255;49.244;7.726;2023-03-26T16:46:53;97097.91;;;1.53;80.26
58467;BME280;44255;49.244;7.726;2023-03-26T16:55:12;97094.59;;;1.32;81.83
58467;BME280;44255;49.244;7.726;2023-03-26T17:06:04;97081.38;;;1.98;80.06
58467;BME280;44255;49.244;7.726;2023-03-26T17:08:41;97079.38;;;1.70;78.07
58467;BME280;44255;49.244;7.726;2023-03-26T17:14:07;97073.16;;;2.19;76.64
58467;BME280;44255;49.244;7.726;2023-03-26T17:16:41;97079.75;;;1.95;76.25
58467;BME280;44255;49.244;7.726;2023-03-26T17:22:03;97077.19;;;1.44;78.32
58467;BME280;44255;49.244;7.726;2023-03-26T17:33:21;97086.41;;;1.37;77.85
58467;BME280;44255;49.244;7.726;2023-03-26T17:41:11;97083.28;;;1.29;77.49
58467;BME280;44255;49.244;7.726;2023-03-26T17:43:50;97081.72;;;1.42;75.62
58467;BME280;44255;49.244;7.726;2023-03-26T17:46:30;97086.59;;;1.16;77.15
58467;BME280;44255;49.244;7.726;2023-03-26T17:49:18;97081.66;;;1.26;76.17
58467;BME280;44255;49.244;7.726;2023-03-26T17:54:46;97089.06;;;1.19;76.66
58467;BME280;44255;49.244;7.726;2023-03-26T17:57:17;97092.88;;;0.78;78.43
58467;BME280;44255;49.244;7.726;2023-03-26T17:59:45;97093.03;;;0.38;79.56
58467;BME280;44255;49.244;7.726;2023-03-26T18:02:17;97097.84;;;0.49;78.73
58467;BME280;44255;49.244;7.726;2023-03-26T18:04:44;97091.31;;;0.37;78.74
58467;BME280;44255;49.244;7.726;2023-03-26T18:18:22;97096.69;;;0.73;77.63
58467;BME280;44255;49.244;7.726;2023-03-26T18:20:52;97105.22;;;0.43;78.50
58467;BME280;44255;49.244;7.726;2023-03-26T18:23:36;97097.03;;;1.02;76.81
58467;BME280;44255;49.244;7.726;2023-03-26T18:26:10;97100.16;;;0.75;76.89
58467;BME280;44255;49.244;7.726;2023-03-26T18:28:42;97096.88;;;1.05;77.65
58467;BME280;44255;49.244;7.726;2023-03-26T18:31:15;97094.47;;;0.46;78.09
58467;BME280;44255;49.244;7.726;2023-03-26T18:33:45;97104.16;;;0.28;79.04
58467;BME280;44255;49.244;7.726;2023-03-26T18:36:13;97094.31;;;0.86;77.11
58467;BME280;44255;49.244;7.726;2023-03-26T18:38:39;97093.44;;;0.67;78.81
58467;BME280;44255;49.244;7.726;2023-03-26T18:41:06;97097.53;;;0.36;78.17
58467;BME280;44255;49.244;7.726;2023-03-26T18:43:32;97089.84;;;1.21;76.12
58467;BME280;44255;49.244;7.726;2023-03-26T18:45:59;97099.34;;;0.36;79.22
58467;BME280;44255;49.244;7.726;2023-03-26T18:48:26;97107.94;;;0.60;77.07
58467;BME280;44255;49.244;7.726;2023-03-26T18:50:55;97094.13;;;0.34;78.98
58467;BME280;44255;49.244;7.726;2023-03-26T18:53:26;97101.91;;;0.57;79.52
58467;BME280;44255;49.244;7.726;2023-03-26T18:55:54;97093.59;;;0.64;78.66
58467;BME280;44255;49.244;7.726;2023-03-26T18:58:27;97092.56;;;0.30;79.07
58467;BME280;44255;49.244;7.726;2023-03-26T19:00:57;97090.69;;;0.32;80.15
58467;BME280;44255;49.244;7.726;2023-03-26T19:03:23;97095.81;;;0.35;82.32
58467;BME280;44255;49.244;7.726;2023-03-26T19:05:53;97101.38;;;0.67;81.28
58467;BME280;44255;49.244;7.726;2023-03-26T19:08:20;97102.56;;;0.97;81.49
58467;BME280;44255;49.244;7.726;2023-03-26T19:10:48;97111.19;;;-0.50;87.13
58467;BME280;44255;49.244;7.726;2023-03-26T19:13:14;97105.31;;;0.03;86.82
58467;BME280;44255;49.244;7.726;2023-03-26T19:15:41;97099.06;;;-0.35;89.83
58467;BME280;44255;49.244;7.726;2023-03-26T19:18:08;97108.97;;;0.00;89.39
58467;BME280;44255;49.244;7.726;2023-03-26T19:21:04;97104.44;;;0.40;90.64
58467;BME280;44255;49.244;7.726;2023-03-26T19:23:39;97102.09;;;-0.04;89.98
58467;BME280;44255;49.244;7.726;2023-03-26T19:26:07;97109.03;;;-0.21;91.81
58467;BME280;44255;49.244;7.726;2023-03-26T19:28:37;97106.41;;;-0.01;93.90
58467;BME280;44255;49.244;7.726;2023-03-26T19:31:33;97111.47;;;0.03;92.64
58467;BME280;44255;49.244;7.726;2023-03-26T19:34:17;97097.31;;;0.41;89.91
58467;BME280;44255;49.244;7.726;2023-03-26T19:36:52;97099.88;;;0.25;92.69
58467;BME280;44255;49.244;7.726;2023-03-26T19:39:23;97104.50;;;0.39;91.84
58467;BME280;44255;49.244;7.726;2023-03-26T19:41:50;97111.38;;;0.62;89.64
58467;BME280;44255;49.244;7.726;2023-03-26T19:44:27;97106.44;;;0.35;89.99
58467;BME280;44255;49.244;7.726;2023-03-26T19:47:06;97114.19;;;0.02;93.19
58467;BME280;44255;49.244;7.726;2023-03-26T19:49:50;97110.25;;;0.10;93.57
58467;BME280;44255;49.244;7.726;2023-03-26T19:57:14;97108.47;;;-0.08;94.94
58467;BME280;44255;49.244;7.726;2023-03-26T19:59:39;97117.84;;;0.18;96.57
58467;BME280;44255;49.244;7.726;2023-03-26T20:02:10;97111.22;;;0.46;95.70
58467;BME280;44255;49.244;7.726;2023-03-26T20:04:35;97118.91;;;0.33;94.90
58467;BME280;44255;49.244;7.726;2023-03-26T20:07:00;97133.31;;;0.08;96.10
58467;BME280;44255;49.244;7.726;2023-03-26T20:09:25;97134.88;;;-0.07;98.09
58467;BME280;44255;49.244;7.726;2023-03-26T20:11:51;97132.16;;;-0.05;97.50
58467;BME280;44255;49.244;7.726;2023-03-26T20:14:17;97135.09;;;0.08;95.55
58467;BME280;44255;49.244;7.726;2023-03-26T20:16:49;97129.06;;;0.43;95.39
58467;BME280;44255;49.244;7.726;2023-03-26T20:19:15;97138.75;;;0.24;98.07
58467;BME280;44255;49.244;7.726;2023-03-26T20:21:41;97136.75;;;0.10;97.55
58467;BME280;44255;49.244;7.726;2023-03-26T20:24:11;97139.88;;;-0.20;99.67
58467;BME280;44255;49.244;7.726;2023-03-26T20:26:37;97155.84;;;-0.21;100.00
58467;BME280;44255;49.244;7.726;2023-03-26T20:29:02;97146.03;;;0.00;97.46
58467;BME280;44255;49.244;7.726;2023-03-26T20:31:27;97140.13;;;-0.05;99.32
58467;BME280;44255;49.244;7.726;2023-03-26T20:33:54;97159.75;;;-0.30;99.75
58467;BME280;44255;49.244;7.726;2023-03-26T20:36:20;97161.16;;;-0.21;99.57
58467;BME280;44255;49.244;7.726;2023-03-26T20:38:45;97150.03;;;-0.29;100.00
58467;BME280;44255;49.244;7.726;2023-03-26T20:41:13;97165.16;;;-0.12;98.56
58467;BME280;44255;49.244;7.726;2023-03-26T20:43:39;97154.50;;;0.08;99.93
58467;BME280;44255;49.244;7.726;2023-03-26T20:46:05;97160.69;;;-0.52;100.00
58467;BME280;44255;49.244;7.726;2023-03-26T20:48:31;97159.16;;;0.03;100.00
58467;BME280;44255;49.244;7.726;2023-03-26T20:50:56;97156.97;;;-0.27;100.00
58467;BME280;44255;49.244;7.726;2023-03-26T20:53:22;97161.06;;;-0.20;100.00
58467;BME280;44255;49.244;7.726;2023-03-26T20:55:48;97157.44;;;0.40;100.00
58467;BME280;44255;49.244;7.726;2023-03-26T20:58:16;97160.44;;;-0.06;99.20
